sensor_id;sensor_type;location;lat;lon;timestamp;P1;durP1;ratioP1;P2;durP2;ratioP2
8564;SDS011;4320;51.498;6.556;2023-03-01T00:00:19;6.43;;;5.60;;
8564;SDS011;4320;51.498;6.556;2023-03-01T00:02:45;7.73;;;5.40;;
8564;SDS011;4320;51.498;6.556;2023-03-01T00:05:10;7.17;;;5.57;;
8564;SDS011;4320;51.498;6.556;2023-03-01T00:07:36;7.97;;;5.77;;
8564;SDS011;4320;51.498;6.556;2023-03-01T00:10:02;7.57;;;5.93;;
8564;SDS011;4320;51.498;6.556;2023-03-01T00:12:28;9.00;;;6.00;;
8564;SDS011;4320;51.498;6.556;2023-03-01T00:14:54;6.83;;;5.47;;
8564;SDS011;4320;51.498;6.556;2023-03-01T00:17:19;8.87;;;5.43;;
8564;SDS011;4320;51.498;6.556;2023-03-01T00:19:45;7.50;;;5.87;;
8564;SDS011;4320;51.498;6.556;2023-03-01T00:22:10;7.33;;;5.63;;
8564;SDS011;4320;51.498;6.556;2023-03-01T00:24:36;8.97;;;5.57;;
8564;SDS011;4320;51.498;6.556;2023-03-01T00:27:01;7.73;;;5.37;;
8564;SDS011;4320;51.498;6.556;2023-03-01T00:29:27;6.93;;;5.30;;
8564;SDS011;4320;51.498;6.556;2023-03-01T00:31:53;10.73;;;6.80;;
8564;SDS011;4320;51.498;6.556;2023-03-01T00:34:18;23.43;;;13.17;;
8564;SDS011;4320;51.498;6.556;2023-03-01T00:36:44;19.43;;;11.43;;
8564;SDS011;4320;51.498;6.556;2023-03-01T00:39:11;52.73;;;27.43;;
8564;SDS011;4320;51.498;6.556;2023-03-01T00:41:39;39.97;;;21.47;;
8564;SDS011;4320;51.498;6.556;2023-03-01T00:44:05;47.13;;;23.37;;
8564;SDS011;4320;51.498;6.556;2023-03-01T00:46:30;41.70;;;20.83;;
8564;SDS011;4320;51.498;6.556;2023-03-01T00:48:57;53.50;;;25.63;;
8564;SDS011;4320;51.498;6.556;2023-03-01T00:51:23;41.47;;;20.37;;
8564;SDS011;4320;51.498;6.556;2023-03-01T00:53:51;38.77;;;19.27;;
8564;SDS011;4320;51.498;6.556;2023-03-01T00:56:19;31.90;;;18.37;;
8564;SDS011;4320;51.498;6.556;2023-03-01T00:58:45;55.10;;;27.03;;
8564;SDS011;4320;51.498;6.556;2023-03-01T01:01:13;42.17;;;22.33;;
8564;SDS011;4320;51.498;6.556;2023-03-01T01:03:53;21.37;;;13.03;;
8564;SDS011;4320;51.498;6.556;2023-03-01T01:06:25;13.03;;;8.87;;
8564;SDS011;4320;51.498;6.556;2023-03-01T01:08:55;8.67;;;6.23;;
8564;SDS011;4320;51.498;6.556;2023-03-01T01:11:22;8.40;;;6.00;;
8564;SDS011;4320;51.498;6.556;2023-03-01T01:13:49;11.87;;;7.73;;
8564;SDS011;4320;51.498;6.556;2023-03-01T01:16:16;10.13;;;5.93;;
8564;SDS011;4320;51.498;6.556;2023-03-01T01:18:43;7.63;;;5.30;;
8564;SDS011;4320;51.498;6.556;2023-03-01T01:21:10;7.87;;;5.80;;
8564;SDS011;4320;51.498;6.556;2023-03-01T01:23:38;9.80;;;6.80;;
8564;SDS011;4320;51.498;6.556;2023-03-01T01:26:05;9.70;;;6.33;;
8564;SDS011;4320;51.498;6.556;2023-03-01T01:28:32;9.77;;;7.10;;
8564;SDS011;4320;51.498;6.556;2023-03-01T01:30:58;10.77;;;7.40;;
8564;SDS011;4320;51.498;6.556;2023-03-01T01:33:24;9.60;;;6.90;;
8564;SDS011;4320;51.498;6.556;2023-03-01T01:35:50;8.33;;;6.20;;
8564;SDS011;4320;51.498;6.556;2023-03-01T01:38:15;8.57;;;6.13;;
8564;SDS011;4320;51.498;6.556;2023-03-01T01:40:45;7.07;;;6.23;;
8564;SDS011;4320;51.498;6.556;2023-03-01T01:43:45;8.37;;;6.23;;
8564;SDS011;4320;51.498;6.556;2023-03-01T01:46:14;8.00;;;5.90;;
8564;SDS011;4320;51.498;6.556;2023-03-01T01:48:53;7.60;;;6.20;;
8564;SDS011;4320;51.498;6.556;2023-03-01T01:51:30;8.13;;;6.00;;
8564;SDS011;4320;51.498;6.556;2023-03-01T01:54:03;7.40;;;5.67;;
8564;SDS011;4320;51.498;6.556;2023-03-01T01:56:44;9.33;;;6.63;;
8564;SDS011;4320;51.498;6.556;2023-03-01T01:59:23;8.53;;;5.90;;
8564;SDS011;4320;51.498;6.556;2023-03-01T02:01:51;10.50;;;6.70;;
8564;SDS011;4320;51.498;6.556;2023-03-01T02:04:17;8.20;;;6.27;;
8564;SDS011;4320;51.498;6.556;2023-03-01T02:06:45;11.13;;;6.70;;
8564;SDS011;4320;51.498;6.556;2023-03-01T02:09:18;8.80;;;6.33;;
8564;SDS011;4320;51.498;6.556;2023-03-01T02:11:45;9.20;;;6.00;;
8564;SDS011;4320;51.498;6.556;2023-03-01T02:14:12;8.13;;;5.87;;
8564;SDS011;4320;51.498;6.556;2023-03-01T02:16:40;10.40;;;6.90;;
8564;SDS011;4320;51.498;6.556;2023-03-01T02:19:07;8.50;;;6.50;;
8564;SDS011;4320;51.498;6.556;2023-03-01T02:30:22;8.13;;;6.20;;
8564;SDS011;4320;51.498;6.556;2023-03-01T02:32:50;9.57;;;6.53;;
8564;SDS011;4320;51.498;6.556;2023-03-01T02:35:17;9.27;;;6.63;;
8564;SDS011;4320;51.498;6.556;2023-03-01T02:37:44;7.30;;;6.60;;
8564;SDS011;4320;51.498;6.556;2023-03-01T02:40:16;7.83;;;5.97;;
8564;SDS011;4320;51.498;6.556;2023-03-01T02:42:51;7.90;;;6.03;;
8564;SDS011;4320;51.498;6.556;2023-03-01T02:45:18;8.67;;;5.97;;
8564;SDS011;4320;51.498;6.556;2023-03-01T02:47:44;6.80;;;6.07;;
8564;SDS011;4320;51.498;6.556;2023-03-01T02:50:16;7.10;;;5.87;;
8564;SDS011;4320;51.498;6.556;2023-03-01T02:55:36;7.80;;;6.10;;
8564;SDS011;4320;51.498;6.556;2023-03-01T02:58:02;10.43;;;6.23;;
8564;SDS011;4320;51.498;6.556;2023-03-01T03:00:35;8.50;;;6.13;;
8564;SDS011;4320;51.498;6.556;2023-03-01T03:03:05;11.20;;;6.40;;
8564;SDS011;4320;51.498;6.556;2023-03-01T03:05:31;9.23;;;6.40;;
8564;SDS011;4320;51.498;6.556;2023-03-01T03:07:58;8.40;;;6.67;;
8564;SDS011;4320;51.498;6.556;2023-03-01T03:10:26;8.90;;;6.47;;
8564;SDS011;4320;51.498;6.556;2023-03-01T03:12:55;8.33;;;6.70;;
8564;SDS011;4320;51.498;6.556;2023-03-01T03:15:40;9.27;;;6.07;;
8564;SDS011;4320;51.498;6.556;2023-03-01T03:18:08;9.80;;;6.63;;
8564;SDS011;4320;51.498;6.556;2023-03-01T03:20:35;8.10;;;6.63;;
8564;SDS011;4320;51.498;6.556;2023-03-01T03:23:02;8.67;;;6.00;;
8564;SDS011;4320;51.498;6.556;2023-03-01T03:25:28;8.37;;;6.33;;
8564;SDS011;4320;51.498;6.556;2023-03-01T03:27:55;7.70;;;5.53;;
8564;SDS011;4320;51.498;6.556;2023-03-01T03:30:24;11.60;;;7.03;;
8564;SDS011;4320;51.498;6.556;2023-03-01T03:32:51;9.80;;;6.90;;
8564;SDS011;4320;51.498;6.556;2023-03-01T03:35:18;8.57;;;6.90;;
8564;SDS011;4320;51.498;6.556;2023-03-01T03:37:46;12.03;;;6.73;;
8564;SDS011;4320;51.498;6.556;2023-03-01T03:40:27;7.93;;;6.27;;
8564;SDS011;4320;51.498;6.556;2023-03-01T03:42:56;10.07;;;7.10;;
8564;SDS011;4320;51.498;6.556;2023-03-01T03:45:22;7.90;;;6.27;;
8564;SDS011;4320;51.498;6.556;2023-03-01T03:47:48;8.93;;;6.27;;
8564;SDS011;4320;51.498;6.556;2023-03-01T03:50:15;8.50;;;6.40;;
8564;SDS011;4320;51.498;6.556;2023-03-01T03:52:41;7.77;;;6.13;;
8564;SDS011;4320;51.498;6.556;2023-03-01T03:55:08;14.60;;;6.40;;
8564;SDS011;4320;51.498;6.556;2023-03-01T03:57:35;7.37;;;6.07;;
8564;SDS011;4320;51.498;6.556;2023-03-01T04:00:04;7.40;;;6.50;;
8564;SDS011;4320;51.498;6.556;2023-03-01T04:02:38;9.00;;;6.90;;
8564;SDS011;4320;51.498;6.556;2023-03-01T04:05:07;10.90;;;7.47;;
8564;SDS011;4320;51.498;6.556;2023-03-01T04:07:35;10.33;;;7.07;;
8564;SDS011;4320;51.498;6.556;2023-03-01T04:10:03;8.20;;;6.47;;
8564;SDS011;4320;51.498;6.556;2023-03-01T04:12:29;8.50;;;6.77;;
8564;SDS011;4320;51.498;6.556;2023-03-01T04:14:55;9.30;;;6.70;;
8564;SDS011;4320;51.498;6.556;2023-03-01T04:17:20;12.33;;;7.07;;
8564;SDS011;4320;51.498;6.556;2023-03-01T04:19:46;11.83;;;6.27;;
8564;SDS011;4320;51.498;6.556;2023-03-01T04:22:14;8.73;;;6.80;;
8564;SDS011;4320;51.498;6.556;2023-03-01T04:24:42;8.70;;;7.00;;
8564;SDS011;4320;51.498;6.556;2023-03-01T04:27:08;7.33;;;6.07;;
8564;SDS011;4320;51.498;6.556;2023-03-01T04:29:34;7.77;;;6.43;;
8564;SDS011;4320;51.498;6.556;2023-03-01T04:31:59;9.47;;;5.77;;
8564;SDS011;4320;51.498;6.556;2023-03-01T04:34:25;10.27;;;5.87;;
8564;SDS011;4320;51.498;6.556;2023-03-01T04:36:51;10.60;;;6.87;;
8564;SDS011;4320;51.498;6.556;2023-03-01T04:39:17;7.80;;;6.00;;
8564;SDS011;4320;51.498;6.556;2023-03-01T04:41:43;9.93;;;6.57;;
8564;SDS011;4320;51.498;6.556;2023-03-01T04:44:09;11.50;;;6.50;;
8564;SDS011;4320;51.498;6.556;2023-03-01T04:46:35;10.07;;;7.03;;
8564;SDS011;4320;51.498;6.556;2023-03-01T04:49:01;10.33;;;6.73;;
8564;SDS011;4320;51.498;6.556;2023-03-01T04:51:27;7.77;;;5.93;;
8564;SDS011;4320;51.498;6.556;2023-03-01T04:53:53;9.27;;;6.10;;
8564;SDS011;4320;51.498;6.556;2023-03-01T04:56:19;15.27;;;7.53;;
8564;SDS011;4320;51.498;6.556;2023-03-01T04:58:47;8.73;;;7.03;;
8564;SDS011;4320;51.498;6.556;2023-03-01T05:01:17;9.60;;;6.97;;
8564;SDS011;4320;51.498;6.556;2023-03-01T05:03:44;10.97;;;7.43;;
8564;SDS011;4320;51.498;6.556;2023-03-01T05:06:11;18.10;;;10.47;;
8564;SDS011;4320;51.498;6.556;2023-03-01T05:08:38;20.90;;;12.53;;
8564;SDS011;4320;51.498;6.556;2023-03-01T05:11:04;20.13;;;11.47;;
8564;SDS011;4320;51.498;6.556;2023-03-01T05:13:30;22.73;;;12.00;;
8564;SDS011;4320;51.498;6.556;2023-03-01T05:15:57;18.53;;;10.40;;
8564;SDS011;4320;51.498;6.556;2023-03-01T05:18:25;13.00;;;8.93;;
8564;SDS011;4320;51.498;6.556;2023-03-01T05:20:56;19.23;;;10.60;;
8564;SDS011;4320;51.498;6.556;2023-03-01T05:23:29;21.30;;;11.87;;
8564;SDS011;4320;51.498;6.556;2023-03-01T05:25:59;19.23;;;11.10;;
8564;SDS011;4320;51.498;6.556;2023-03-01T05:28:29;19.40;;;10.97;;
8564;SDS011;4320;51.498;6.556;2023-03-01T05:30:55;27.43;;;13.73;;
8564;SDS011;4320;51.498;6.556;2023-03-01T05:33:21;14.50;;;8.90;;
8564;SDS011;4320;51.498;6.556;2023-03-01T05:35:47;34.17;;;17.40;;
8564;SDS011;4320;51.498;6.556;2023-03-01T05:38:14;32.53;;;17.17;;
8564;SDS011;4320;51.498;6.556;2023-03-01T05:40:44;23.87;;;12.20;;
8564;SDS011;4320;51.498;6.556;2023-03-01T05:43:11;32.23;;;15.87;;
8564;SDS011;4320;51.498;6.556;2023-03-01T05:45:38;26.60;;;12.83;;
8564;SDS011;4320;51.498;6.556;2023-03-01T05:48:05;30.57;;;14.23;;
8564;SDS011;4320;51.498;6.556;2023-03-01T05:50:33;37.37;;;18.50;;
8564;SDS011;4320;51.498;6.556;2023-03-01T05:53:04;27.90;;;13.80;;
8564;SDS011;4320;51.498;6.556;2023-03-01T05:55:33;20.93;;;9.67;;
8564;SDS011;4320;51.498;6.556;2023-03-01T05:58:00;19.73;;;10.27;;
8564;SDS011;4320;51.498;6.556;2023-03-01T06:00:27;27.27;;;14.43;;
8564;SDS011;4320;51.498;6.556;2023-03-01T06:02:53;34.43;;;17.97;;
8564;SDS011;4320;51.498;6.556;2023-03-01T06:05:20;33.13;;;18.20;;
8564;SDS011;4320;51.498;6.556;2023-03-01T06:07:47;32.77;;;17.33;;
8564;SDS011;4320;51.498;6.556;2023-03-01T06:10:13;40.37;;;21.03;;
8564;SDS011;4320;51.498;6.556;2023-03-01T06:12:40;26.90;;;14.27;;
8564;SDS011;4320;51.498;6.556;2023-03-01T06:15:08;21.80;;;13.20;;
8564;SDS011;4320;51.498;6.556;2023-03-01T06:17:35;18.93;;;11.43;;
8564;SDS011;4320;51.498;6.556;2023-03-01T06:20:03;10.30;;;7.67;;
8564;SDS011;4320;51.498;6.556;2023-03-01T06:22:30;11.27;;;7.10;;
8564;SDS011;4320;51.498;6.556;2023-03-01T06:24:55;10.03;;;7.43;;
8564;SDS011;4320;51.498;6.556;2023-03-01T06:27:21;12.53;;;9.10;;
8564;SDS011;4320;51.498;6.556;2023-03-01T06:29:46;18.67;;;10.83;;
8564;SDS011;4320;51.498;6.556;2023-03-01T06:32:12;21.00;;;12.67;;
8564;SDS011;4320;51.498;6.556;2023-03-01T06:34:38;16.80;;;10.80;;
8564;SDS011;4320;51.498;6.556;2023-03-01T06:37:04;15.03;;;10.60;;
8564;SDS011;4320;51.498;6.556;2023-03-01T06:39:31;14.17;;;9.90;;
8564;SDS011;4320;51.498;6.556;2023-03-01T06:41:57;18.37;;;12.60;;
8564;SDS011;4320;51.498;6.556;2023-03-01T06:44:23;13.67;;;9.30;;
8564;SDS011;4320;51.498;6.556;2023-03-01T06:46:48;16.43;;;10.10;;
8564;SDS011;4320;51.498;6.556;2023-03-01T06:49:14;11.80;;;8.43;;
8564;SDS011;4320;51.498;6.556;2023-03-01T06:51:41;10.17;;;8.07;;
8564;SDS011;4320;51.498;6.556;2023-03-01T06:54:07;15.33;;;8.37;;
8564;SDS011;4320;51.498;6.556;2023-03-01T06:56:32;11.93;;;8.00;;
8564;SDS011;4320;51.498;6.556;2023-03-01T06:58:58;10.70;;;7.47;;
8564;SDS011;4320;51.498;6.556;2023-03-01T07:01:24;11.27;;;7.40;;
8564;SDS011;4320;51.498;6.556;2023-03-01T07:03:50;10.00;;;7.07;;
8564;SDS011;4320;51.498;6.556;2023-03-01T07:06:15;12.03;;;7.97;;
8564;SDS011;4320;51.498;6.556;2023-03-01T07:08:42;11.07;;;7.03;;
8564;SDS011;4320;51.498;6.556;2023-03-01T07:11:08;9.37;;;7.10;;
8564;SDS011;4320;51.498;6.556;2023-03-01T07:13:34;9.90;;;7.07;;
8564;SDS011;4320;51.498;6.556;2023-03-01T07:15:59;10.90;;;6.93;;
8564;SDS011;4320;51.498;6.556;2023-03-01T07:18:25;11.77;;;7.33;;
8564;SDS011;4320;51.498;6.556;2023-03-01T07:20:51;10.10;;;7.17;;
8564;SDS011;4320;51.498;6.556;2023-03-01T07:23:16;10.90;;;6.73;;
8564;SDS011;4320;51.498;6.556;2023-03-01T07:25:42;10.83;;;7.20;;
8564;SDS011;4320;51.498;6.556;2023-03-01T07:28:08;7.70;;;6.60;;
8564;SDS011;4320;51.498;6.556;2023-03-01T07:30:33;10.00;;;7.00;;
8564;SDS011;4320;51.498;6.556;2023-03-01T07:32:59;10.10;;;6.90;;
8564;SDS011;4320;51.498;6.556;2023-03-01T07:35:25;8.53;;;6.53;;
8564;SDS011;4320;51.498;6.556;2023-03-01T07:37:51;9.60;;;7.30;;
8564;SDS011;4320;51.498;6.556;2023-03-01T07:40:17;9.87;;;7.17;;
8564;SDS011;4320;51.498;6.556;2023-03-01T07:42:43;11.13;;;7.10;;
8564;SDS011;4320;51.498;6.556;2023-03-01T07:45:08;9.30;;;6.70;;
8564;SDS011;4320;51.498;6.556;2023-03-01T07:47:34;8.38;;;6.72;;
8564;SDS011;4320;51.498;6.556;2023-03-01T07:50:01;9.60;;;6.97;;
8564;SDS011;4320;51.498;6.556;2023-03-01T07:52:27;8.38;;;6.40;;
8564;SDS011;4320;51.498;6.556;2023-03-01T07:54:53;9.43;;;6.78;;
8564;SDS011;4320;51.498;6.556;2023-03-01T07:57:18;8.43;;;6.38;;
8564;SDS011;4320;51.498;6.556;2023-03-01T07:59:44;8.23;;;6.25;;
8564;SDS011;4320;51.498;6.556;2023-03-01T08:02:10;8.63;;;6.32;;
8564;SDS011;4320;51.498;6.556;2023-03-01T08:04:36;8.40;;;6.78;;
8564;SDS011;4320;51.498;6.556;2023-03-01T08:07:04;10.07;;;6.50;;
8564;SDS011;4320;51.498;6.556;2023-03-01T08:09:30;7.20;;;6.13;;
8564;SDS011;4320;51.498;6.556;2023-03-01T08:11:56;7.18;;;6.18;;
8564;SDS011;4320;51.498;6.556;2023-03-01T08:14:24;9.18;;;6.60;;
8564;SDS011;4320;51.498;6.556;2023-03-01T08:16:50;8.15;;;6.72;;
8564;SDS011;4320;51.498;6.556;2023-03-01T08:19:15;7.97;;;6.22;;
8564;SDS011;4320;51.498;6.556;2023-03-01T08:21:41;9.35;;;6.88;;
8564;SDS011;4320;51.498;6.556;2023-03-01T08:24:07;11.00;;;6.95;;
8564;SDS011;4320;51.498;6.556;2023-03-01T08:26:35;12.82;;;6.65;;
8564;SDS011;4320;51.498;6.556;2023-03-01T08:29:01;11.15;;;7.53;;
8564;SDS011;4320;51.498;6.556;2023-03-01T08:31:29;10.30;;;7.30;;
8564;SDS011;4320;51.498;6.556;2023-03-01T08:33:57;9.40;;;7.45;;
8564;SDS011;4320;51.498;6.556;2023-03-01T08:36:29;12.20;;;9.02;;
8564;SDS011;4320;51.498;6.556;2023-03-01T08:38:56;8.68;;;7.10;;
8564;SDS011;4320;51.498;6.556;2023-03-01T08:41:22;8.02;;;7.18;;
8564;SDS011;4320;51.498;6.556;2023-03-01T08:43:48;8.70;;;7.38;;
8564;SDS011;4320;51.498;6.556;2023-03-01T08:46:14;9.02;;;6.72;;
8564;SDS011;4320;51.498;6.556;2023-03-01T08:48:40;8.20;;;6.30;;
8564;SDS011;4320;51.498;6.556;2023-03-01T08:51:15;9.68;;;6.75;;
8564;SDS011;4320;51.498;6.556;2023-03-01T08:53:42;7.88;;;6.75;;
8564;SDS011;4320;51.498;6.556;2023-03-01T08:56:08;8.25;;;7.22;;
8564;SDS011;4320;51.498;6.556;2023-03-01T08:58:35;8.10;;;6.97;;
8564;SDS011;4320;51.498;6.556;2023-03-01T09:01:01;7.60;;;6.03;;
8564;SDS011;4320;51.498;6.556;2023-03-01T09:03:32;12.52;;;8.65;;
8564;SDS011;4320;51.498;6.556;2023-03-01T09:06:01;11.35;;;7.65;;
8564;SDS011;4320;51.498;6.556;2023-03-01T09:08:27;13.05;;;6.60;;
8564;SDS011;4320;51.498;6.556;2023-03-01T09:10:52;11.50;;;7.68;;
8564;SDS011;4320;51.498;6.556;2023-03-01T09:13:18;9.30;;;7.43;;
8564;SDS011;4320;51.498;6.556;2023-03-01T09:15:44;8.60;;;6.30;;
8564;SDS011;4320;51.498;6.556;2023-03-01T09:18:09;7.40;;;6.22;;
8564;SDS011;4320;51.498;6.556;2023-03-01T09:20:35;7.43;;;6.43;;
8564;SDS011;4320;51.498;6.556;2023-03-01T09:23:01;9.80;;;7.00;;
8564;SDS011;4320;51.498;6.556;2023-03-01T09:25:26;7.97;;;6.05;;
8564;SDS011;4320;51.498;6.556;2023-03-01T09:27:52;11.27;;;8.38;;
8564;SDS011;4320;51.498;6.556;2023-03-01T09:30:19;10.50;;;7.47;;
8564;SDS011;4320;51.498;6.556;2023-03-01T09:32:45;10.13;;;7.88;;
8564;SDS011;4320;51.498;6.556;2023-03-01T09:35:13;15.20;;;9.13;;
8564;SDS011;4320;51.498;6.556;2023-03-01T09:37:39;9.27;;;6.35;;
8564;SDS011;4320;51.498;6.556;2023-03-01T09:40:12;8.73;;;7.05;;
8564;SDS011;4320;51.498;6.556;2023-03-01T09:42:48;10.73;;;8.02;;
8564;SDS011;4320;51.498;6.556;2023-03-01T09:45:27;12.20;;;9.23;;
8564;SDS011;4320;51.498;6.556;2023-03-01T09:48:09;12.18;;;9.98;;
8564;SDS011;4320;51.498;6.556;2023-03-01T09:50:41;11.45;;;8.15;;
8564;SDS011;4320;51.498;6.556;2023-03-01T09:55:48;8.48;;;6.95;;
8564;SDS011;4320;51.498;6.556;2023-03-01T10:01:21;10.65;;;7.68;;
8564;SDS011;4320;51.498;6.556;2023-03-01T10:04:12;10.40;;;7.88;;
8564;SDS011;4320;51.498;6.556;2023-03-01T10:06:55;8.65;;;6.68;;
8564;SDS011;4320;51.498;6.556;2023-03-01T10:09:39;12.18;;;7.28;;
8564;SDS011;4320;51.498;6.556;2023-03-01T10:12:08;8.25;;;7.20;;
8564;SDS011;4320;51.498;6.556;2023-03-01T10:14:43;7.60;;;6.80;;
8564;SDS011;4320;51.498;6.556;2023-03-01T10:20:44;9.88;;;7.05;;
8564;SDS011;4320;51.498;6.556;2023-03-01T10:23:18;8.80;;;6.53;;
8564;SDS011;4320;51.498;6.556;2023-03-01T10:25:47;8.93;;;7.07;;
8564;SDS011;4320;51.498;6.556;2023-03-01T10:28:43;8.02;;;6.32;;
8564;SDS011;4320;51.498;6.556;2023-03-01T10:31:25;7.63;;;6.35;;
8564;SDS011;4320;51.498;6.556;2023-03-01T10:34:02;8.77;;;6.47;;
8564;SDS011;4320;51.498;6.556;2023-03-01T10:36:33;8.02;;;6.60;;
8564;SDS011;4320;51.498;6.556;2023-03-01T10:38:59;9.10;;;6.53;;
8564;SDS011;4320;51.498;6.556;2023-03-01T10:41:35;8.88;;;6.57;;
8564;SDS011;4320;51.498;6.556;2023-03-01T10:44:36;11.77;;;6.43;;
8564;SDS011;4320;51.498;6.556;2023-03-01T10:47:04;8.00;;;6.20;;
8564;SDS011;4320;51.498;6.556;2023-03-01T10:49:30;9.10;;;6.82;;
8564;SDS011;4320;51.498;6.556;2023-03-01T10:51:56;9.65;;;6.63;;
8564;SDS011;4320;51.498;6.556;2023-03-01T10:54:43;11.98;;;7.40;;
8564;SDS011;4320;51.498;6.556;2023-03-01T10:57:31;9.02;;;6.45;;
8564;SDS011;4320;51.498;6.556;2023-03-01T11:00:01;9.40;;;6.32;;
8564;SDS011;4320;51.498;6.556;2023-03-01T11:03:10;10.50;;;5.85;;
8564;SDS011;4320;51.498;6.556;2023-03-01T11:05:49;8.38;;;5.97;;
8564;SDS011;4320;51.498;6.556;2023-03-01T11:08:25;10.10;;;6.20;;
8564;SDS011;4320;51.498;6.556;2023-03-01T11:16:41;10.68;;;8.55;;
8564;SDS011;4320;51.498;6.556;2023-03-01T11:21:34;7.88;;;6.30;;
8564;SDS011;4320;51.498;6.556;2023-03-01T11:24:05;10.05;;;6.80;;
8564;SDS011;4320;51.498;6.556;2023-03-01T11:26:36;12.75;;;10.07;;
8564;SDS011;4320;51.498;6.556;2023-03-01T11:29:07;10.20;;;8.00;;
8564;SDS011;4320;51.498;6.556;2023-03-01T11:31:42;10.25;;;6.97;;
8564;SDS011;4320;51.498;6.556;2023-03-01T11:34:13;8.35;;;6.18;;
8564;SDS011;4320;51.498;6.556;2023-03-01T11:39:26;8.73;;;6.50;;
8564;SDS011;4320;51.498;6.556;2023-03-01T11:42:05;9.38;;;6.10;;
8564;SDS011;4320;51.498;6.556;2023-03-01T11:44:37;7.22;;;5.55;;
8564;SDS011;4320;51.498;6.556;2023-03-01T11:47:18;6.40;;;5.30;;
8564;SDS011;4320;51.498;6.556;2023-03-01T11:55:09;8.45;;;6.22;;
8564;SDS011;4320;51.498;6.556;2023-03-01T12:01:02;8.68;;;5.68;;
8564;SDS011;4320;51.498;6.556;2023-03-01T12:06:35;8.48;;;5.30;;
8564;SDS011;4320;51.498;6.556;2023-03-01T12:21:27;8.98;;;6.03;;
8564;SDS011;4320;51.498;6.556;2023-03-01T12:29:25;9.18;;;6.47;;
8564;SDS011;4320;51.498;6.556;2023-03-01T12:32:02;13.13;;;8.45;;
8564;SDS011;4320;51.498;6.556;2023-03-01T12:40:33;17.13;;;10.55;;
8564;SDS011;4320;51.498;6.556;2023-03-01T12:49:13;6.43;;;5.10;;
8564;SDS011;4320;51.498;6.556;2023-03-01T12:52:00;9.68;;;5.57;;
8564;SDS011;4320;51.498;6.556;2023-03-01T12:54:35;6.50;;;5.40;;
8564;SDS011;4320;51.498;6.556;2023-03-01T12:57:48;7.05;;;5.38;;
8564;SDS011;4320;51.498;6.556;2023-03-01T13:00:51;7.20;;;5.28;;
8564;SDS011;4320;51.498;6.556;2023-03-01T13:11:40;9.70;;;6.05;;
8564;SDS011;4320;51.498;6.556;2023-03-01T13:16:53;6.68;;;5.47;;
8564;SDS011;4320;51.498;6.556;2023-03-01T13:19:23;10.07;;;6.35;;
8564;SDS011;4320;51.498;6.556;2023-03-01T13:21:57;8.23;;;6.20;;
8564;SDS011;4320;51.498;6.556;2023-03-01T13:24:27;9.75;;;6.07;;
8564;SDS011;4320;51.498;6.556;2023-03-01T13:29:54;8.95;;;6.28;;
8564;SDS011;4320;51.498;6.556;2023-03-01T13:34:58;7.97;;;6.38;;
8564;SDS011;4320;51.498;6.556;2023-03-01T13:37:36;8.95;;;6.40;;
8564;SDS011;4320;51.498;6.556;2023-03-01T13:42:44;7.35;;;6.50;;
8564;SDS011;4320;51.498;6.556;2023-03-01T13:45:16;10.35;;;6.60;;
8564;SDS011;4320;51.498;6.556;2023-03-01T13:47:45;10.00;;;6.53;;
8564;SDS011;4320;51.498;6.556;2023-03-01T13:50:30;11.02;;;7.30;;
8564;SDS011;4320;51.498;6.556;2023-03-01T13:53:03;8.52;;;6.43;;
8564;SDS011;4320;51.498;6.556;2023-03-01T13:55:35;8.88;;;6.60;;
8564;SDS011;4320;51.498;6.556;2023-03-01T13:58:05;8.68;;;6.65;;
8564;SDS011;4320;51.498;6.556;2023-03-01T14:00:44;7.63;;;6.00;;
8564;SDS011;4320;51.498;6.556;2023-03-01T14:05:41;7.63;;;5.80;;
8564;SDS011;4320;51.498;6.556;2023-03-01T14:08:21;9.32;;;5.75;;
8564;SDS011;4320;51.498;6.556;2023-03-01T14:11:13;9.65;;;6.00;;
8564;SDS011;4320;51.498;6.556;2023-03-01T14:19:17;9.10;;;6.50;;
8564;SDS011;4320;51.498;6.556;2023-03-01T14:21:49;8.00;;;6.00;;
8564;SDS011;4320;51.498;6.556;2023-03-01T14:24:29;7.88;;;5.85;;
8564;SDS011;4320;51.498;6.556;2023-03-01T14:26:57;9.30;;;5.90;;
8564;SDS011;4320;51.498;6.556;2023-03-01T14:29:26;10.63;;;5.63;;
8564;SDS011;4320;51.498;6.556;2023-03-01T14:31:53;10.70;;;6.45;;
8564;SDS011;4320;51.498;6.556;2023-03-01T14:34:22;9.45;;;6.07;;
8564;SDS011;4320;51.498;6.556;2023-03-01T14:36:49;9.90;;;6.15;;
8564;SDS011;4320;51.498;6.556;2023-03-01T14:39:19;7.82;;;5.50;;
8564;SDS011;4320;51.498;6.556;2023-03-01T14:41:48;10.55;;;6.57;;
8564;SDS011;4320;51.498;6.556;2023-03-01T14:44:16;11.77;;;6.40;;
8564;SDS011;4320;51.498;6.556;2023-03-01T14:46:51;8.27;;;6.03;;
8564;SDS011;4320;51.498;6.556;2023-03-01T14:49:19;8.43;;;6.28;;
8564;SDS011;4320;51.498;6.556;2023-03-01T14:51:57;7.38;;;5.95;;
8564;SDS011;4320;51.498;6.556;2023-03-01T14:57:00;12.68;;;5.90;;
8564;SDS011;4320;51.498;6.556;2023-03-01T14:59:26;7.03;;;5.75;;
8564;SDS011;4320;51.498;6.556;2023-03-01T15:01:53;9.73;;;6.43;;
8564;SDS011;4320;51.498;6.556;2023-03-01T15:04:21;10.57;;;6.38;;
8564;SDS011;4320;51.498;6.556;2023-03-01T15:06:52;9.85;;;6.32;;
8564;SDS011;4320;51.498;6.556;2023-03-01T15:09:19;8.65;;;6.05;;
8564;SDS011;4320;51.498;6.556;2023-03-01T15:11:46;10.77;;;5.82;;
8564;SDS011;4320;51.498;6.556;2023-03-01T15:17:17;10.07;;;5.93;;
8564;SDS011;4320;51.498;6.556;2023-03-01T15:19:48;16.77;;;6.68;;
8564;SDS011;4320;51.498;6.556;2023-03-01T15:22:14;12.35;;;6.70;;
8564;SDS011;4320;51.498;6.556;2023-03-01T15:24:41;13.82;;;6.85;;
8564;SDS011;4320;51.498;6.556;2023-03-01T15:27:17;14.88;;;6.75;;
8564;SDS011;4320;51.498;6.556;2023-03-01T15:29:57;11.35;;;7.22;;
8564;SDS011;4320;51.498;6.556;2023-03-01T15:32:26;10.63;;;6.57;;
8564;SDS011;4320;51.498;6.556;2023-03-01T15:34:57;10.02;;;6.97;;
8564;SDS011;4320;51.498;6.556;2023-03-01T15:42:56;10.52;;;6.45;;
8564;SDS011;4320;51.498;6.556;2023-03-01T15:45:27;10.02;;;6.57;;
8564;SDS011;4320;51.498;6.556;2023-03-01T15:47:57;10.68;;;6.32;;
8564;SDS011;4320;51.498;6.556;2023-03-01T15:50:29;9.57;;;6.90;;
8564;SDS011;4320;51.498;6.556;2023-03-01T15:52:58;10.60;;;6.03;;
8564;SDS011;4320;51.498;6.556;2023-03-01T15:55:26;11.95;;;6.22;;
8564;SDS011;4320;51.498;6.556;2023-03-01T15:58:01;8.85;;;5.43;;
8564;SDS011;4320;51.498;6.556;2023-03-01T16:00:30;10.55;;;6.30;;
8564;SDS011;4320;51.498;6.556;2023-03-01T16:02:56;16.33;;;6.40;;
8564;SDS011;4320;51.498;6.556;2023-03-01T16:05:23;8.35;;;5.25;;
8564;SDS011;4320;51.498;6.556;2023-03-01T16:07:49;8.52;;;5.97;;
8564;SDS011;4320;51.498;6.556;2023-03-01T16:10:16;8.85;;;6.20;;
8564;SDS011;4320;51.498;6.556;2023-03-01T16:12:43;7.43;;;5.80;;
8564;SDS011;4320;51.498;6.556;2023-03-01T16:15:12;8.70;;;5.78;;
8564;SDS011;4320;51.498;6.556;2023-03-01T16:17:44;9.02;;;6.53;;
8564;SDS011;4320;51.498;6.556;2023-03-01T16:20:10;10.85;;;6.32;;
8564;SDS011;4320;51.498;6.556;2023-03-01T16:22:36;20.20;;;12.93;;
8564;SDS011;4320;51.498;6.556;2023-03-01T16:25:01;21.30;;;11.77;;
8564;SDS011;4320;51.498;6.556;2023-03-01T16:27:27;22.92;;;12.15;;
8564;SDS011;4320;51.498;6.556;2023-03-01T16:29:53;9.73;;;6.27;;
8564;SDS011;4320;51.498;6.556;2023-03-01T16:32:18;21.85;;;12.20;;
8564;SDS011;4320;51.498;6.556;2023-03-01T16:34:44;27.67;;;15.60;;
8564;SDS011;4320;51.498;6.556;2023-03-01T16:37:12;18.27;;;11.70;;
8564;SDS011;4320;51.498;6.556;2023-03-01T16:39:38;22.73;;;12.70;;
8564;SDS011;4320;51.498;6.556;2023-03-01T16:42:03;14.63;;;8.38;;
8564;SDS011;4320;51.498;6.556;2023-03-01T16:44:29;21.85;;;13.18;;
8564;SDS011;4320;51.498;6.556;2023-03-01T16:46:55;10.48;;;6.65;;
8564;SDS011;4320;51.498;6.556;2023-03-01T16:49:21;12.37;;;8.20;;
8564;SDS011;4320;51.498;6.556;2023-03-01T16:51:46;23.08;;;13.32;;
8564;SDS011;4320;51.498;6.556;2023-03-01T16:54:12;16.33;;;9.35;;
8564;SDS011;4320;51.498;6.556;2023-03-01T16:56:37;29.10;;;18.87;;
8564;SDS011;4320;51.498;6.556;2023-03-01T16:59:04;23.30;;;13.68;;
8564;SDS011;4320;51.498;6.556;2023-03-01T17:01:30;21.08;;;12.05;;
8564;SDS011;4320;51.498;6.556;2023-03-01T17:04:04;20.58;;;11.23;;
8564;SDS011;4320;51.498;6.556;2023-03-01T17:06:30;21.20;;;11.87;;
8564;SDS011;4320;51.498;6.556;2023-03-01T17:08:57;20.73;;;10.10;;